Time;durP1;ratioP1;P1;durP2;ratioP2;P2;SDS_P1;SDS_P2;PMS_P1;PMS_P2;Temp;Humidity;BMP_temperature;BMP_pressure;BME280_temperature;BME280_humidity;BME280_pressure;Samples;Min_cycle;Max_cycle;Signal;HPM_P1;HPM_P2
2024/04/13 00:01:19;;;;;;;9.70;8.40;;;;;;;12.83;72.54;100812.92;102984;1266;113715;-72
2024/04/13 00:03:46;;;;;;;11.60;8.70;;;;;;;12.85;72.57;100812.52;102861;1266;139648;-72
2024/04/13 00:06:13;;;;;;;10.30;7.90;;;;;;;12.87;72.56;100805.27;102926;1265;100522;-71
2024/04/13 00:08:40;;;;;;;12.10;8.70;;;;;;;12.92;72.56;100806.87;102724;1263;139613;-72
2024/04/13 00:11:08;;;;;;;11.20;8.30;;;;;;;12.94;72.54;100805.95;102857;1264;100400;-75
2024/04/13 00:13:36;;;;;;;12.80;8.20;;;;;;;12.95;72.48;100799.80;103047;1263;140361;-72
2024/04/13 00:16:03;;;;;;;11.60;8.40;;;;;;;12.95;72.65;100791.41;102872;1262;107858;-73
2024/04/13 00:18:32;;;;;;;9.60;8.20;;;;;;;12.98;72.51;100790.27;102938;1267;100404;-73
2024/04/13 00:21:00;;;;;;;12.30;8.20;;;;;;;12.99;72.52;100787.25;102816;1266;140148;-72
2024/04/13 00:23:27;;;;;;;14.20;9.20;;;;;;;13.03;72.50;100786.08;102795;1262;100504;-72
2024/04/13 00:25:56;;;;;;;9.70;8.60;;;;;;;13.06;72.44;100784.04;102671;1264;139799;-73
2024/04/13 00:28:23;;;;;;;10.50;7.80;;;;;;;13.12;72.44;100780.73;102716;1263;107786;-73
2024/04/13 00:30:51;;;;;;;11.40;8.80;;;;;;;13.14;72.35;100775.23;102800;1263;101637;-73
2024/04/13 00:33:19;;;;;;;9.50;8.50;;;;;;;13.16;72.16;100772.02;103203;1262;139328;-73
2024/04/13 00:35:46;;;;;;;10.50;8.50;;;;;;;13.20;72.12;100770.34;102919;1268;100687;-73
2024/04/13 00:38:13;;;;;;;12.10;8.60;;;;;;;13.24;72.12;100766.89;103067;1264;140374;-73
2024/04/13 00:40:42;;;;;;;10.40;8.10;;;;;;;13.26;72.14;100769.77;102769;1264;107656;-74
2024/04/13 00:43:10;;;;;;;10.50;8.20;;;;;;;13.27;72.02;100767.98;102874;1263;100542;-73
2024/04/13 00:45:42;;;;;;;11.10;8.20;;;;;;;13.26;72.02;100765.21;102695;1263;139307;-73
2024/04/13 00:48:11;;;;;;;13.00;8.40;;;;;;;13.26;72.15;100763.27;102932;1263;100542;-74
2024/04/13 00:50:38;;;;;;;9.50;7.60;;;;;;;13.24;72.04;100762.31;103196;1263;139261;-73
2024/04/13 00:53:05;;;;;;;11.70;8.90;;;;;;;13.23;71.99;100760.43;102787;1265;106816;-73
2024/04/13 00:55:32;;;;;;;12.40;8.90;;;;;;;13.22;71.98;100757.14;102831;1262;140022;-73
2024/04/13 00:58:00;;;;;;;12.10;8.70;;;;;;;13.24;71.93;100754.13;102868;1264;108155;-73
2024/04/13 01:00:28;;;;;;;12.30;9.20;;;;;;;13.24;71.96;100750.62;103069;1264;100408;-73
2024/04/13 01:02:55;;;;;;;11.20;8.50;;;;;;;13.27;71.96;100748.61;102981;1264;139772;-73
2024/04/13 01:05:22;;;;;;;12.10;8.40;;;;;;;13.28;71.95;100747.70;102738;1264;108702;-74
2024/04/13 01:07:49;;;;;;;10.70;8.70;;;;;;;13.28;71.85;100749.97;103042;1264;139371;-72
2024/04/13 01:10:16;;;;;;;14.10;8.20;;;;;;;13.27;71.88;100744.94;102904;1264;107369;-72
2024/04/13 01:12:46;;;;;;;13.40;9.40;;;;;;;13.25;71.90;100744.46;102717;1263;100536;-73
2024/04/13 01:15:13;;;;;;;12.30;8.70;;;;;;;13.25;71.84;100744.13;103025;1262;139462;-72
2024/04/13 01:17:41;;;;;;;12.10;9.20;;;;;;;13.28;71.99;100747.36;102874;1267;105354;-72
2024/04/13 01:20:09;;;;;;;14.10;8.80;;;;;;;13.28;71.94;100741.60;103155;1264;138385;-72
2024/04/13 01:22:41;;;;;;;12.80;8.60;;;;;;;13.27;71.91;100735.15;103052;1262;107071;-72
2024/04/13 01:25:10;;;;;;;14.50;9.00;;;;;;;13.33;71.90;100744.92;104053;1266;98544;-74
2024/04/13 01:27:37;;;;;;;13.30;8.90;;;;;;;13.35;71.92;100742.22;102900;1264;139924;-73
2024/04/13 01:30:07;;;;;;;13.20;9.30;;;;;;;13.36;71.98;100742.19;102773;1262;107329;-73
2024/04/13 01:32:34;;;;;;;11.60;9.30;;;;;;;13.37;71.82;100739.38;103209;1266;139279;-73
2024/04/13 01:35:11;;;;;;;11.90;8.70;;;;;;;13.36;71.72;100735.73;102897;1264;107007;-74
2024/04/13 01:37:39;;;;;;;12.60;9.40;;;;;;;13.37;71.77;100732.74;102851;1266;139889;-73
2024/04/13 01:40:08;;;;;;;13.20;9.30;;;;;;;13.38;71.84;100728.84;102891;1263;114192;-72
2024/04/13 01:42:35;;;;;;;13.70;8.90;;;;;;;13.41;71.89;100728.21;102735;1266;107147;-72
2024/04/13 01:45:02;;;;;;;14.10;9.30;;;;;;;13.42;71.78;100728.86;102637;1266;139425;-72
2024/04/13 01:47:29;;;;;;;12.20;9.30;;;;;;;13.44;71.84;100729.30;102788;1262;106634;-72
2024/04/13 01:49:56;;;;;;;15.80;9.20;;;;;;;13.42;71.69;100728.51;102932;1263;139552;-73
2024/04/13 01:52:24;;;;;;;14.40;9.40;;;;;;;13.45;71.73;100731.37;102806;1262;113551;-70
2024/04/13 01:54:50;;;;;;;11.30;9.70;;;;;;;13.45;71.85;100728.23;102821;1263;106976;-71
2024/04/13 01:57:17;;;;;;;13.90;9.30;;;;;;;13.46;71.80;100726.63;102636;1263;138535;-71
2024/04/13 01:59:45;;;;;;;15.40;9.70;;;;;;;13.46;71.88;100725.05;102970;1264;108105;-70
2024/04/13 02:02:12;;;;;;;13.50;9.50;;;;;;;13.46;71.83;100724.00;102736;1264;139278;-71
2024/04/13 02:04:39;;;;;;;16.40;9.40;;;;;;;13.45;71.97;100715.66;103054;1264;114381;-73
2024/04/13 02:07:07;;;;;;;12.70;10.00;;;;;;;13.45;71.88;100716.35;103920;1264;106898;-73
2024/04/13 02:09:34;;;;;;;14.00;9.50;;;;;;;13.45;71.94;100715.45;102732;1264;139641;-73
2024/04/13 02:12:02;;;;;;;15.60;10.40;;;;;;;13.46;72.07;100712.30;102783;1264;108048;-73
2024/04/13 02:14:29;;;;;;;19.80;10.40;;;;;;;13.47;72.08;100709.29;102830;1264;140443;-73
2024/04/13 02:16:56;;;;;;;13.30;10.00;;;;;;;13.47;72.02;100718.55;102829;1264;113825;-73
2024/04/13 02:19:23;;;;;;;11.80;10.40;;;;;;;13.47;72.02;100715.95;102811;1264;107563;-71
2024/04/13 02:21:50;;;;;;;12.80;10.20;;;;;;;13.45;72.14;100717.91;102936;1268;100512;-72
2024/04/13 02:24:17;;;;;;;14.70;11.10;;;;;;;13.43;72.12;100716.95;102991;1263;108006;-72
2024/04/13 02:26:44;;;;;;;17.80;11.10;;;;;;;13.43;72.31;100717.84;102507;1266;139468;-72
2024/04/13 02:29:11;;;;;;;15.80;11.40;;;;;;;13.41;72.34;100716.16;102768;1264;113613;-72
2024/04/13 02:31:38;;;;;;;13.50;10.40;;;;;;;13.41;72.37;100713.20;102547;1264;141840;-71
2024/04/13 02:34:05;;;;;;;15.00;11.00;;;;;;;13.40;72.40;100712.52;102684;1267;100534;-73
2024/04/13 02:36:32;;;;;;;14.60;11.50;;;;;;;13.41;72.55;100704.64;102689;1264;107234;-74
2024/04/13 02:39:01;;;;;;;16.10;11.10;;;;;;;13.42;72.48;100706.36;102642;1263;139563;-73
2024/04/13 02:41:28;;;;;;;18.20;11.70;;;;;;;13.41;72.61;100706.73;102757;1264;114073;-71
2024/04/13 02:43:55;;;;;;;14.00;11.30;;;;;;;13.40;72.60;100704.14;102741;1263;140196;-71
2024/04/13 02:46:23;;;;;;;15.10;11.60;;;;;;;13.39;72.61;100703.66;102794;1264;100644;-72
2024/04/13 02:48:50;;;;;;;18.40;12.90;;;;;;;13.36;72.84;100704.47;102879;1264;106763;-72
2024/04/13 02:51:17;;;;;;;17.80;12.50;;;;;;;13.33;72.84;100699.86;102814;1264;141250;-72
2024/04/13 02:53:44;;;;;;;15.30;12.40;;;;;;;13.31;73.04;100697.49;102923;1262;115666;-71
2024/04/13 02:56:11;;;;;;;15.70;12.50;;;;;;;13.29;73.14;100695.80;102924;1264;139474;-72
2024/04/13 02:58:38;;;;;;;15.10;12.10;;;;;;;13.28;73.19;100700.19;102724;1267;101104;-72
2024/04/13 03:01:05;;;;;;;16.70;13.40;;;;;;;13.25;73.23;100704.49;102673;1264;106791;-72
2024/04/13 03:03:32;;;;;;;20.20;13.10;;;;;;;13.22;73.27;100701.46;102683;1267;139475;-71
2024/04/13 03:06:05;;;;;;;18.90;12.80;;;;;;;13.20;73.47;100705.02;102780;1266;113585;-72
2024/04/13 03:08:32;;;;;;;17.70;13.10;;;;;;;13.18;73.57;100708.40;102660;1264;139424;-72
2024/04/13 03:11:00;;;;;;;18.50;13.70;;;;;;;13.18;73.71;100707.21;102748;1268;100602;-72
2024/04/13 03:13:28;;;;;;;16.30;13.80;;;;;;;13.16;73.92;100703.56;102832;1264;106947;-73
2024/04/13 03:16:03;;;;;;;17.30;13.70;;;;;;;13.16;73.91;100702.00;102783;1264;100539;-72
2024/04/13 03:18:30;;;;;;;16.80;14.50;;;;;;;13.15;74.28;100697.32;102795;1264;112934;-72
2024/04/13 03:20:58;;;;;;;20.70;14.60;;;;;;;13.13;74.32;100701.92;102801;1264;140118;-73
2024/04/13 03:23:25;;;;;;;19.90;13.80;;;;;;;13.12;74.46;100705.81;102762;1264;100650;-73
2024/04/13 03:25:52;;;;;;;18.10;15.10;;;;;;;13.10;74.53;100706.91;102636;1264;139634;-73
2024/04/13 03:28:23;;;;;;;15.90;14.30;;;;;;;13.10;74.69;100709.20;102699;1263;101028;-73
2024/04/13 03:30:50;;;;;;;21.70;14.90;;;;;;;13.08;74.80;100707.51;102714;1267;113513;-71
2024/04/13 03:33:17;;;;;;;18.50;14.60;;;;;;;13.07;74.94;100709.64;102525;1263;139557;-72
2024/04/13 03:35:45;;;;;;;19.00;14.80;;;;;;;13.07;74.96;100703.19;103051;1264;101024;-71
2024/04/13 03:38:13;;;;;;;20.50;14.80;;;;;;;13.06;74.98;100700.80;102621;1266;139827;-71
2024/04/13 03:40:40;;;;;;;18.00;14.10;;;;;;;13.05;75.26;100695.92;102754;1264;100933;-71
2024/04/13 03:43:07;;;;;;;20.90;15.10;;;;;;;13.06;75.33;100697.13;102726;1265;114586;-71
2024/04/13 03:45:35;;;;;;;18.80;14.90;;;;;;;13.06;75.55;100695.55;102726;1264;139524;-72
2024/04/13 03:48:02;;;;;;;16.30;14.40;;;;;;;13.05;75.54;100694.35;102720;1263;100424;-71
2024/04/13 03:50:29;;;;;;;19.20;14.10;;;;;;;13.05;75.58;100695.04;102718;1266;139424;-71
2024/04/13 03:52:57;;;;;;;17.90;14.30;;;;;;;13.04;75.67;100695.80;102651;1264;100538;-73
2024/04/13 03:55:23;;;;;;;18.90;14.80;;;;;;;13.07;75.80;100695.85;102862;1264;113973;-71
2024/04/13 03:57:50;;;;;;;24.80;15.00;;;;;;;13.09;75.80;100694.73;102673;1264;141780;-72
2024/04/13 04:00:18;;;;;;;16.80;14.00;;;;;;;13.10;75.84;100694.52;102887;1263;101046;-72
2024/04/13 04:02:45;;;;;;;19.60;15.30;;;;;;;13.11;75.90;100693.45;102832;1264;139416;-72
2024/04/13 04:05:12;;;;;;;20.50;14.80;;;;;;;13.13;76.09;100693.90;102719;1264;100508;-73
2024/04/13 04:07:39;;;;;;;20.10;15.10;;;;;;;13.15;76.09;100692.07;102652;1265;140032;-72
2024/04/13 04:10:07;;;;;;;20.50;13.80;;;;;;;13.18;76.11;100693.58;102678;1263;107846;-72
2024/04/13 04:12:34;;;;;;;21.90;14.60;;;;;;;13.21;76.09;100692.60;102710;1264;100526;-72
2024/04/13 04:15:01;;;;;;;17.30;14.80;;;;;;;13.23;76.06;100693.20;102786;1264;139469;-73
2024/04/13 04:17:28;;;;;;;20.20;15.30;;;;;;;13.27;76.10;100691.33;102702;1264;100453;-72
2024/04/13 04:19:55;;;;;;;18.20;13.80;;;;;;;13.32;76.20;100697.63;102599;1264;139604;-72
2024/04/13 04:22:22;;;;;;;19.00;15.40;;;;;;;13.38;76.19;100700.19;102847;1267;107918;-72
2024/04/13 04:24:50;;;;;;;18.90;14.30;;;;;;;13.45;76.13;100698.02;102788;1264;100397;-72
2024/04/13 04:27:18;;;;;;;21.00;14.80;;;;;;;13.51;75.93;100696.77;103187;1264;139736;-72
2024/04/13 04:29:45;;;;;;;18.20;14.70;;;;;;;13.57;75.88;100696.15;102960;1264;100564;-72
2024/04/13 04:32:12;;;;;;;19.00;14.00;;;;;;;13.67;75.83;100699.11;102881;1264;139825;-72
2024/04/13 04:34:39;;;;;;;18.90;14.20;;;;;;;13.76;75.72;100698.40;102618;1267;107517;-72
2024/04/13 04:37:06;;;;;;;18.80;14.30;;;;;;;13.90;75.69;100700.52;102716;1267;100409;-71
2024/04/13 04:39:33;;;;;;;17.10;14.30;;;;;;;14.01;75.37;100696.09;102719;1264;139534;-70
2024/04/13 04:42:00;;;;;;;16.80;14.30;;;;;;;14.06;75.04;100698.48;102761;1263;100558;-71
2024/04/13 04:44:28;;;;;;;16.90;14.20;;;;;;;14.11;74.98;100700.02;103016;1264;139774;-72
2024/04/13 04:46:55;;;;;;;19.30;13.70;;;;;;;14.14;74.73;100700.26;102822;1264;107685;-72
2024/04/13 04:49:23;;;;;;;14.90;13.40;;;;;;;14.18;74.73;100696.59;102849;1264;100438;-72
2024/04/13 04:51:49;;;;;;;17.90;13.90;;;;;;;14.30;74.82;100698.92;102576;1267;139335;-72
2024/04/13 04:54:19;;;;;;;18.70;13.20;;;;;;;14.64;74.80;100700.54;102736;1264;100530;-72
2024/04/13 04:56:46;;;;;;;17.80;12.30;;;;;;;15.24;74.25;100699.15;102590;1267;139848;-72
2024/04/13 04:59:13;;;;;;;14.80;12.70;;;;;;;15.57;72.78;100701.36;102726;1264;107142;-72
2024/04/13 05:01:39;;;;;;;17.40;13.10;;;;;;;15.56;71.94;100700.54;103121;1264;139719;-70
2024/04/13 05:04:06;;;;;;;14.50;12.30;;;;;;;15.46;71.76;100700.84;103057;1264;107365;-78
2024/04/13 05:06:34;;;;;;;18.90;12.40;;;;;;;15.43;71.69;100701.10;102890;1264;100599;-67
2024/04/13 05:09:04;;;;;;;16.70;12.70;;;;;;;15.54;71.79;100701.87;103228;1263;140908;-72
2024/04/13 05:11:33;;;;;;;16.40;12.40;;;;;;;15.66;71.44;100701.51;102553;1264;106800;-72
2024/04/13 05:14:00;;;;;;;15.60;12.60;;;;;;;15.80;71.32;100704.56;103037;1263;140193;-72
2024/04/13 05:16:27;;;;;;;18.70;13.60;;;;;;;15.94;70.72;100707.59;102734;1264;107541;-72
2024/04/13 05:18:54;;;;;;;17.70;13.10;;;;;;;16.02;70.48;100707.00;102751;1264;100539;-74
2024/04/13 05:21:21;;;;;;;19.70;13.60;;;;;;;16.10;70.30;100712.23;102635;1264;145411;-73
2024/04/13 05:23:48;;;;;;;16.40;12.40;;;;;;;16.15;70.00;100712.02;102666;1264;107922;-73
2024/04/13 05:26:15;;;;;;;16.50;12.50;;;;;;;16.18;69.95;100712.58;102935;1265;139673;-72
2024/04/13 05:28:42;;;;;;;14.90;11.90;;;;;;;16.13;69.65;100714.91;102678;1264;107585;-71
2024/04/13 05:31:09;;;;;;;19.40;12.50;;;;;;;16.10;69.92;100715.25;102629;1264;100524;-71
2024/04/13 05:33:38;;;;;;;18.40;12.10;;;;;;;16.06;69.89;100711.04;102677;1264;139556;-72
2024/04/13 05:36:06;;;;;;;17.20;12.70;;;;;;;16.03;69.95;100712.77;102805;1264;107980;-72
2024/04/13 05:38:33;;;;;;;16.60;13.00;;;;;;;16.05;70.11;100711.26;102689;1264;139578;-72
2024/04/13 05:41:00;;;;;;;15.60;11.90;;;;;;;16.20;70.00;100710.53;102826;1266;106773;-72
2024/04/13 05:43:27;;;;;;;16.30;11.90;;;;;;;16.37;69.72;100709.92;103160;1263;100416;-71
2024/04/13 05:45:54;;;;;;;15.40;11.90;;;;;;;16.52;69.49;100708.42;102871;1264;114203;-72
2024/04/13 05:48:21;;;;;;;16.10;11.60;;;;;;;16.75;69.17;100703.11;102974;1267;108598;-72
2024/04/13 05:50:55;;;;;;;15.40;12.20;;;;;;;17.02;68.61;100700.50;102880;1264;140103;-73
2024/04/13 05:53:26;;;;;;;17.20;12.40;;;;;;;17.26;67.97;100699.27;102774;1267;106528;-71
2024/04/13 05:55:53;;;;;;;16.40;12.40;;;;;;;17.32;67.41;100701.73;102573;1264;139686;-71
2024/04/13 05:58:20;;;;;;;14.80;11.50;;;;;;;17.26;67.10;100699.06;103509;1265;113361;-72
2024/04/13 06:00:48;;;;;;;14.10;11.60;;;;;;;17.12;66.73;100693.66;102998;1264;107647;-72
2024/04/13 06:03:15;;;;;;;16.90;11.90;;;;;;;16.99;67.06;100691.86;102848;1264;139496;-72
2024/04/13 06:05:43;;;;;;;16.60;11.60;;;;;;;16.91;67.14;100690.54;102818;1266;107040;-72
2024/04/13 06:08:10;;;;;;;15.00;12.40;;;;;;;16.84;67.43;100685.96;102721;1264;139957;-72
2024/04/13 06:10:37;;;;;;;17.20;12.20;;;;;;;16.74;67.50;100681.04;102874;1264;113493;-74
2024/04/13 06:13:05;;;;;;;14.30;11.70;;;;;;;16.69;67.78;100682.02;102722;1265;106883;-73
2024/04/13 06:15:32;;;;;;;16.00;11.80;;;;;;;16.67;67.85;100677.71;102780;1267;139370;-72
2024/04/13 06:17:59;;;;;;;18.20;12.60;;;;;;;16.66;67.99;100678.96;102812;1263;108012;-72
2024/04/13 06:20:26;;;;;;;16.10;11.80;;;;;;;16.60;67.89;100676.46;102745;1263;139605;-72
2024/04/13 06:22:54;;;;;;;17.00;12.50;;;;;;;16.52;67.95;100675.08;102634;1264;113304;-72
2024/04/13 06:25:21;;;;;;;16.70;12.50;;;;;;;16.45;68.12;100681.74;102583;1263;108227;-73
2024/04/13 06:27:53;;;;;;;17.10;12.20;;;;;;;16.39;68.25;100682.59;102686;1263;101079;-73
2024/04/13 06:30:20;;;;;;;14.80;11.70;;;;;;;16.35;68.55;100682.25;103022;1263;107352;-72
2024/04/13 06:32:47;;;;;;;14.40;12.20;;;;;;;16.28;68.57;100677.84;103467;1264;139896;-74
2024/04/13 06:35:14;;;;;;;17.50;11.60;;;;;;;16.27;68.72;100677.53;102806;1262;113215;-73
2024/04/13 06:37:41;;;;;;;14.90;11.70;;;;;;;16.27;68.85;100671.08;102810;1263;140752;-72
2024/04/13 06:40:12;;;;;;;16.50;12.00;;;;;;;16.25;68.80;100675.02;102729;1264;101050;-73
2024/04/13 06:42:39;;;;;;;15.70;12.50;;;;;;;16.25;68.92;100671.49;102919;1267;106177;-75
2024/04/13 06:45:07;;;;;;;15.80;11.70;;;;;;;16.27;68.98;100675.79;102564;1264;139513;-76
2024/04/13 06:47:34;;;;;;;18.10;11.70;;;;;;;16.32;69.04;100675.05;102968;1263;114130;-74
2024/04/13 06:50:01;;;;;;;17.60;11.80;;;;;;;16.37;68.97;100675.49;102716;1264;139668;-75
2024/04/13 06:52:29;;;;;;;19.00;12.20;;;;;;;16.44;68.82;100670.39;102795;1264;100548;-74
2024/04/13 06:54:56;;;;;;;12.90;11.00;;;;;;;16.51;68.67;100662.67;102761;1263;108825;-76
2024/04/13 06:57:24;;;;;;;16.10;11.60;;;;;;;16.63;68.50;100664.01;102759;1264;139546;-73
2024/04/13 06:59:51;;;;;;;17.30;11.70;;;;;;;16.83;68.32;100663.73;103937;1262;113544;-74
2024/04/13 07:02:21;;;;;;;15.60;11.80;;;;;;;16.99;67.65;100665.00;103950;1263;139507;-74
2024/04/13 07:04:48;;;;;;;15.60;11.10;;;;;;;17.17;67.34;100664.91;104123;1263;99100;-74
2024/04/13 07:07:16;;;;;;;13.70;11.30;;;;;;;17.65;66.99;100668.01;104116;1263;107088;-74
2024/04/13 07:09:43;;;;;;;15.90;11.20;;;;;;;18.66;65.62;100666.63;104001;1264;140629;-75
2024/04/13 07:12:10;;;;;;;16.90;11.10;;;;;;;19.63;63.75;100665.30;104118;1264;113193;-76
2024/04/13 07:14:37;;;;;;;17.10;11.00;;;;;;;20.47;61.71;100659.36;103973;1263;139281;-75
2024/04/13 07:17:04;;;;;;;15.20;10.40;;;;;;;20.88;60.36;100662.44;104126;1264;98375;-75
2024/04/13 07:19:31;;;;;;;13.10;11.20;;;;;;;20.95;59.31;100659.59;104119;1264;107444;-75
2024/04/13 07:21:58;;;;;;;12.20;10.10;;;;;;;21.11;58.13;100654.27;104123;1264;98482;-75
2024/04/13 07:24:28;;;;;;;14.50;10.20;;;;;;;21.57;57.11;100649.09;104022;1264;114094;-75
2024/04/13 07:26:55;;;;;;;13.50;10.20;;;;;;;21.98;56.01;100651.27;103335;1263;139958;-74
2024/04/13 07:29:22;;;;;;;13.50;9.80;;;;;;;22.84;55.24;100651.55;102873;1264;100446;-75
2024/04/13 07:31:49;;;;;;;14.70;9.90;;;;;;;23.85;53.35;100648.68;102687;1267;139460;-74
2024/04/13 07:34:17;;;;;;;11.90;10.00;;;;;;;24.32;51.68;100647.04;102777;1264;103038;-75
2024/04/13 07:36:45;;;;;;;11.80;9.70;;;;;;;24.10;50.80;100641.86;103012;1263;114346;-75
2024/04/13 07:39:12;;;;;;;13.40;9.60;;;;;;;24.41;50.46;100635.39;102702;1267;138557;-75
2024/04/13 07:41:39;;;;;;;11.70;9.30;;;;;;;24.85;49.26;100636.28;102910;1264;100544;-75
2024/04/13 07:44:07;;;;;;;12.20;9.30;;;;;;;25.12;49.02;100635.05;102784;1264;139359;-76
2024/04/13 07:46:35;;;;;;;15.70;9.00;;;;;;;26.12;48.00;100637.55;103724;1266;98488;-77
2024/04/13 07:49:02;;;;;;;15.20;9.40;;;;;;;27.35;45.73;100631.12;103481;1262;113481;-76
2024/04/13 07:51:33;;;;;;;10.80;9.20;;;;;;;28.46;44.09;100624.66;102842;1263;139531;-76
2024/04/13 07:54:00;;;;;;;12.10;8.60;;;;;;;29.53;42.36;100616.05;102954;1264;100888;-77
2024/04/13 07:56:27;;;;;;;11.50;7.90;;;;;;;30.36;39.51;100618.56;102721;1264;137730;-77
2024/04/13 07:58:54;;;;;;;12.10;8.30;;;;;;;31.08;39.38;100617.38;103032;1264;100533;-75
2024/04/13 08:01:21;;;;;;;9.90;7.80;;;;;;;31.84;37.80;100618.71;102791;1263;113438;-75
2024/04/13 08:03:48;;;;;;;10.50;8.40;;;;;;;32.48;36.69;100612.69;102634;1266;137144;-76
2024/04/13 08:06:15;;;;;;;11.30;8.00;;;;;;;33.00;35.12;100610.88;102815;1267;100575;-76
2024/04/13 08:08:41;;;;;;;13.30;8.30;;;;;;;33.33;33.54;100608.89;102603;1264;138490;-75
2024/04/13 08:11:10;;;;;;;13.40;8.40;;;;;;;33.46;32.32;100612.52;102787;1267;100683;-76
2024/04/13 08:13:37;;;;;;;13.10;7.80;;;;;;;33.47;32.13;100610.21;102638;1263;138693;-74
2024/04/13 08:16:07;;;;;;;11.60;8.70;;;;;;;33.48;31.55;100607.89;102729;1264;100603;-75
2024/04/13 08:18:34;;;;;;;10.70;7.90;;;;;;;33.50;31.39;100603.88;102813;1264;100539;-74
2024/04/13 08:21:01;;;;;;;9.10;7.60;;;;;;;33.73;31.97;100607.55;102721;1264;138832;-76
2024/04/13 08:23:28;;;;;;;9.00;7.60;;;;;;;33.96;31.55;100607.95;102692;1263;100418;-76
2024/04/13 08:26:01;;;;;;;12.10;7.70;;;;;;;33.79;31.03;100607.80;102649;1263;139034;-75
2024/04/13 08:28:30;;;;;;;14.00;8.70;;;;;;;34.00;30.95;100606.68;102711;1264;100643;-75
2024/04/13 08:31:00;;;;;;;15.90;8.40;;;;;;;33.71;30.47;100602.75;102788;1264;100525;-75
2024/04/13 08:33:27;;;;;;;17.10;8.60;;;;;;;33.42;30.27;100602.86;103086;1264;138678;-74
2024/04/13 08:36:04;;;;;;;12.60;9.20;;;;;;;32.81;30.25;100602.96;102827;1267;100522;-76
2024/04/13 08:38:31;;;;;;;12.60;8.30;;;;;;;32.40;30.90;100612.38;102630;1263;138753;-76
2024/04/13 08:41:00;;;;;;;14.30;8.80;;;;;;;32.17;31.08;100612.86;103254;1264;100677;-75
2024/04/13 08:43:27;;;;;;;12.30;9.10;;;;;;;31.69;30.88;100611.27;102755;1264;100427;-76
2024/04/13 08:45:55;;;;;;;12.00;8.70;;;;;;;31.04;31.35;100611.19;102639;1266;138874;-75
2024/04/13 08:48:22;;;;;;;13.80;11.60;;;;;;;30.73;31.43;100614.35;102715;1264;100631;-75
2024/04/13 08:50:50;;;;;;;25.20;20.00;;;;;;;30.38;32.24;100614.19;102632;1267;139106;-73
2024/04/13 08:53:20;;;;;;;20.10;14.20;;;;;;;30.21;32.67;100615.81;102739;1267;107988;-75
2024/04/13 08:55:47;;;;;;;17.60;9.90;;;;;;;30.05;32.59;100611.95;102565;1264;138928;-74
2024/04/13 08:58:17;;;;;;;9.50;8.50;;;;;;;29.82;32.68;100607.80;102755;1264;106780;-75
2024/04/13 09:00:50;;;;;;;12.50;8.50;;;;;;;30.19;32.89;100611.28;102763;1264;100450;-74
2024/04/13 09:03:19;;;;;;;17.00;7.90;;;;;;;30.34;31.88;100605.73;102612;1264;138789;-75
2024/04/13 09:05:46;;;;;;;10.40;7.30;;;;;;;30.40;31.83;100607.33;102722;1264;107627;-75
2024/04/13 09:08:16;;;;;;;16.70;6.80;;;;;;;30.59;31.61;100612.02;102620;1264;138695;-75
2024/04/13 09:10:46;;;;;;;14.20;7.20;;;;;;;30.90;31.42;100611.02;102686;1266;106403;-76
2024/04/13 09:13:13;;;;;;;13.10;6.90;;;;;;;31.19;30.49;100608.37;102750;1267;100567;-76
2024/04/13 09:15:40;;;;;;;11.60;7.10;;;;;;;31.23;30.35;100614.29;102629;1264;138520;-75
2024/04/13 09:18:09;;;;;;;11.00;6.40;;;;;;;30.76;29.82;100613.06;102720;1280;105992;-76
2024/04/13 09:20:36;;;;;;;9.90;7.40;;;;;;;30.17;30.36;100620.70;102674;1267;138779;-75
2024/04/13 09:23:05;;;;;;;10.50;7.70;;;;;;;29.32;30.71;100607.87;102723;1265;106948;-74
2024/04/13 09:25:31;;;;;;;11.20;8.00;;;;;;;28.45;31.61;100607.41;102831;1265;100578;-78
2024/04/13 09:28:06;;;;;;;9.10;7.40;;;;;;;28.09;32.30;100608.89;102778;1264;114714;-76
2024/04/13 09:30:33;;;;;;;7.80;6.60;;;;;;;28.02;31.92;100608.89;102753;1264;106883;-74
2024/04/13 09:33:06;;;;;;;11.50;6.80;;;;;;;27.92;32.10;100615.09;102743;1267;138794;-74
2024/04/13 09:35:33;;;;;;;9.40;7.60;;;;;;;27.30;32.75;100610.00;102785;1267;107793;-74
2024/04/13 09:38:01;;;;;;;12.60;8.40;;;;;;;26.75;33.45;100619.38;102616;1265;138932;-75
2024/04/13 09:40:30;;;;;;;15.70;8.10;;;;;;;26.40;34.12;100611.40;102798;1264;113511;-75
2024/04/13 09:42:57;;;;;;;15.70;8.10;;;;;;;25.86;34.80;100619.77;102687;1263;107982;-73
2024/04/13 09:45:25;;;;;;;13.40;7.80;;;;;;;25.56;35.34;100619.07;102629;1265;138561;-74
2024/04/13 09:47:55;;;;;;;12.00;7.10;;;;;;;25.75;35.52;100615.27;102734;1264;107112;-75
2024/04/13 09:50:22;;;;;;;10.80;7.40;;;;;;;25.85;35.83;100615.08;102608;1264;138753;-74
2024/04/13 09:52:49;;;;;;;11.40;7.60;;;;;;;26.01;35.37;100610.38;102755;1267;113742;-75
2024/04/13 09:55:18;;;;;;;8.60;7.60;;;;;;;25.74;35.58;100616.54;103113;1263;107991;-74
2024/04/13 09:57:46;;;;;;;12.70;7.50;;;;;;;25.30;35.56;100610.48;102885;1266;138519;-75
2024/04/13 10:00:16;;;;;;;11.00;7.90;;;;;;;24.74;36.05;100601.51;103084;1262;108039;-75
2024/04/13 10:02:43;;;;;;;15.40;7.10;;;;;;;24.39;36.89;100609.06;102854;1266;137480;-74
2024/04/13 10:05:10;;;;;;;11.00;8.20;;;;;;;24.55;37.54;100606.33;102844;1263;113676;-74
2024/04/13 10:07:39;;;;;;;13.20;8.20;;;;;;;25.03;37.35;100604.73;102775;1264;109434;-75
2024/04/13 10:10:13;;;;;;;13.70;7.70;;;;;;;25.43;37.56;100605.59;102826;1265;100548;-75
2024/04/13 10:12:42;;;;;;;11.70;7.60;;;;;;;25.66;36.81;100601.41;102747;1264;108635;-75
2024/04/13 10:15:10;;;;;;;9.40;7.20;;;;;;;25.35;36.31;100598.82;102673;1265;138635;-74
2024/04/13 10:17:39;;;;;;;13.40;8.00;;;;;;;24.88;36.59;100597.77;102714;1267;113135;-75
2024/04/13 10:20:07;;;;;;;9.10;6.90;;;;;;;24.58;36.99;100597.71;102622;1266;138988;-73
2024/04/13 10:22:36;;;;;;;12.20;7.60;;;;;;;24.31;37.44;100593.23;102858;1266;101009;-75
2024/04/13 10:25:09;;;;;;;10.00;7.30;;;;;;;24.06;37.91;100597.98;102896;1265;107672;-74
2024/04/13 10:27:37;;;;;;;13.20;8.00;;;;;;;23.75;38.38;100598.06;102566;1267;139690;-74
2024/04/13 10:30:06;;;;;;;12.90;7.90;;;;;;;23.73;39.01;100592.04;102772;1262;113875;-74
2024/04/13 10:32:33;;;;;;;10.50;7.70;;;;;;;24.14;38.83;100589.30;102601;1266;138676;-74
2024/04/13 10:35:11;;;;;;;15.00;7.60;;;;;;;24.57;38.21;100577.52;102768;1265;100521;-74
2024/04/13 10:37:38;;;;;;;10.70;7.40;;;;;;;25.08;38.24;100577.60;102865;1262;107392;-73
2024/04/13 10:40:07;;;;;;;10.40;7.40;;;;;;;25.13;37.33;100578.06;102834;1265;100552;-74
2024/04/13 10:42:38;;;;;;;10.90;6.90;;;;;;;24.80;37.34;100573.08;102854;1265;114846;-74
2024/04/13 10:45:17;;;;;;;10.00;6.70;;;;;;;24.78;37.83;100575.39;102803;1265;138696;-75
2024/04/13 10:47:44;;;;;;;9.60;6.90;;;;;;;24.98;37.65;100578.29;102879;1267;100759;-75
2024/04/13 10:50:13;;;;;;;9.70;6.50;;;;;;;25.31;37.64;100582.45;102749;1264;138743;-75
2024/04/13 10:52:40;;;;;;;8.40;5.90;;;;;;;25.56;37.38;100587.52;102809;1266;100641;-74
2024/04/13 10:55:11;;;;;;;12.40;6.30;;;;;;;25.67;36.54;100579.13;102889;1265;114561;-75
2024/04/13 10:57:40;;;;;;;11.20;6.60;;;;;;;25.83;36.38;100580.45;102626;1264;138649;-74
2024/04/13 11:00:09;;;;;;;7.70;6.50;;;;;;;26.01;36.05;100587.80;102826;1265;100523;-74
2024/04/13 11:02:37;;;;;;;11.50;6.40;;;;;;;26.15;35.86;100584.12;102743;1266;138392;-75